Decoded Metar for LFPG (PARIS CHARLES DE GAULLE in FRANCE) (IATA:CDG) | Meteo·Mobile Aviation Weather
aviador You're here:

LFPG Decoded Metar

PARIS CHARLES DE GAULLE in FRANCE
Report Time2019-01-19 05:30:00
UTC Time2019-01-19 05:54:22
Flight Rules vfr VFR
Wind140° at 10 kt
W.Decomp.*RWY 09: 6.3 kt HW 7.8 kt RCW
RWY 08: 4.8 kt HW 8.7 kt RCW
W.Rank140° ranks 25
Current wind is above 140° avg. (6.4)
Visibility9999 m
Phenomena:N/A
Clouds:N/A
Expected CloudBase > 400 ft AGL from Temp-Dew spread
CeilingNone
Temp-2°C (ISA -16)
Dew Point-3°C (93% RH)
AAT-8.0°C
QNH1013 hPa
Density Alt-1,572 ft
Elevation358 ft
Report Wrong Elevation
Raw Report
LFPG 190530Z 14010KT CAVOK M02/M03 Q1013 NOSIG=

Extra information for LFPG:More info

Metar Taf Metar & Taf Last 4 Metars F.Rules Stats Wind Profile Meteogram Temp Stats Airport Information Weather charts Add Link Nearby VenuesMetar ALERT Operation Metar Decoded Social comments